createdAt,value
2018-01-12T00:00:36.118Z,92.23
2018-01-12T00:01:36.198Z,91.56
2018-01-12T00:02:36.126Z,91.47
2018-01-12T00:03:36.115Z,91.56
2018-01-12T00:04:36.120Z,91.38
2018-01-12T00:05:36.125Z,90.90
2018-01-12T00:06:36.123Z,91.56
2018-01-12T00:07:36.120Z,90.52
2018-01-12T00:08:36.118Z,91.47
2018-01-12T00:09:36.126Z,91.56
2018-01-12T00:10:36.120Z,91.94
2018-01-12T00:11:36.120Z,92.80
2018-01-12T00:12:36.126Z,92.52
2018-01-12T00:13:36.132Z,92.61
2018-01-12T00:14:36.186Z,92.33
2018-01-12T00:15:36.112Z,92.61
2018-01-12T00:16:36.118Z,91.75
2018-01-12T00:17:36.122Z,92.33
2018-01-12T00:18:36.116Z,92.42
2018-01-12T00:19:36.116Z,92.71
2018-01-12T00:20:36.126Z,92.71
2018-01-12T00:21:36.122Z,92.33
2018-01-12T00:22:36.118Z,92.42
2018-01-12T00:23:36.140Z,92.23
2018-01-12T00:24:36.115Z,91.66
2018-01-12T00:25:36.133Z,91.56
2018-01-12T00:26:36.117Z,91.56
2018-01-12T00:27:36.132Z,91.09
2018-01-12T00:28:36.142Z,91.28
2018-01-12T00:29:36.125Z,91.19
2018-01-12T00:30:36.119Z,91.19
2018-01-12T00:31:36.119Z,91.47
2018-01-12T00:32:36.120Z,91.28
2018-01-12T00:33:36.119Z,91.94
2018-01-12T00:34:36.117Z,91.56
2018-01-12T00:35:36.116Z,91.66
2018-01-12T00:36:36.126Z,91.75
2018-01-12T00:37:36.129Z,91.66
2018-01-12T00:38:36.120Z,90.57
2018-01-12T00:39:36.140Z,91.56
2018-01-12T00:40:36.129Z,91.38
2018-01-12T00:41:36.119Z,91.28
2018-01-12T00:42:36.126Z,90.81
2018-01-12T00:43:36.146Z,91.09
2018-01-12T00:44:36.133Z,91.09
2018-01-12T00:45:36.119Z,91.19
2018-01-12T00:46:36.144Z,91.56
2018-01-12T00:47:36.122Z,91.19
2018-01-12T00:48:36.120Z,91.19
2018-01-12T00:49:36.129Z,91.56
2018-01-12T00:50:36.124Z,91.56
2018-01-12T00:51:36.124Z,92.04
2018-01-12T00:52:36.140Z,91.94
2018-01-12T00:53:36.158Z,92.04
2018-01-12T00:54:36.136Z,92.80
2018-01-12T00:55:36.281Z,92.71
2018-01-12T00:56:36.133Z,92.23
2018-01-12T00:57:36.182Z,91.56
2018-01-12T00:58:36.159Z,91.38
2018-01-12T00:59:36.156Z,91.09
2018-01-12T01:00:36.152Z,91.19
2018-01-12T01:01:36.136Z,91.38
2018-01-12T01:02:36.153Z,91.09
2018-01-12T01:03:36.142Z,90.90
2018-01-12T01:04:36.127Z,90.62
2018-01-12T01:05:36.123Z,90.90
2018-01-12T01:06:36.126Z,90.62
2018-01-12T01:07:36.130Z,91.19
2018-01-12T01:08:36.130Z,90.90
2018-01-12T01:09:36.127Z,90.90
2018-01-12T01:10:36.124Z,91.00
2018-01-12T01:11:36.156Z,90.71
2018-01-12T01:12:36.149Z,90.52
2018-01-12T01:13:36.139Z,91.09
2018-01-12T01:14:36.128Z,90.43
2018-01-12T01:15:36.133Z,91.28
2018-01-12T01:16:36.164Z,91.19
2018-01-12T01:17:36.163Z,91.19
2018-01-12T01:18:36.122Z,91.28
2018-01-12T01:19:36.161Z,91.00
2018-01-12T01:20:36.130Z,91.28
2018-01-12T01:21:36.200Z,91.56
2018-01-12T01:22:36.130Z,91.85
2018-01-12T01:23:36.137Z,91.38
2018-01-12T01:24:36.161Z,91.38
2018-01-12T01:25:36.141Z,91.38
2018-01-12T01:26:36.132Z,91.38
2018-01-12T01:27:36.135Z,91.00
2018-01-12T01:28:36.139Z,91.19
2018-01-12T01:29:36.139Z,91.00
2018-01-12T01:30:36.143Z,91.09
2018-01-12T01:31:36.125Z,91.19
2018-01-12T01:32:36.166Z,91.56
2018-01-12T01:33:36.130Z,91.19
2018-01-12T01:34:36.198Z,91.19
2018-01-12T01:35:36.130Z,90.90
2018-01-12T01:36:36.132Z,91.28
2018-01-12T01:37:36.138Z,90.81
2018-01-12T01:38:36.130Z,90.90
2018-01-12T01:39:36.146Z,90.62
2018-01-12T01:40:36.136Z,90.33
2018-01-12T01:41:36.154Z,90.24
2018-01-12T01:42:36.137Z,90.33
2018-01-12T01:43:36.148Z,90.52
2018-01-12T01:44:36.137Z,90.43
2018-01-12T01:45:36.153Z,90.05
2018-01-12T01:46:36.131Z,90.62
2018-01-12T01:47:36.134Z,90.52
2018-01-12T01:48:36.131Z,90.43
2018-01-12T01:49:36.135Z,90.62
2018-01-12T01:50:36.147Z,90.81
2018-01-12T01:51:36.130Z,90.43
2018-01-12T01:52:36.263Z,91.47
2018-01-12T01:53:36.129Z,91.09
2018-01-12T01:54:36.145Z,91.38
2018-01-12T01:55:36.138Z,91.38
2018-01-12T01:56:36.133Z,91.28
2018-01-12T01:57:36.126Z,91.28
2018-01-12T01:58:36.154Z,91.56
2018-01-12T01:59:36.134Z,91.56
2018-01-12T02:00:36.147Z,91.28
2018-01-12T02:01:36.148Z,91.19
2018-01-12T02:02:36.140Z,91.42
2018-01-12T02:03:36.153Z,91.61
2018-01-12T02:04:36.132Z,91.47
2018-01-12T02:05:36.959Z,91.19
2018-01-12T02:06:36.139Z,91.56
2018-01-12T02:07:36.185Z,91.38
2018-01-12T02:08:36.186Z,91.19
2018-01-12T02:09:36.158Z,91.28
2018-01-12T02:10:36.165Z,91.19
2018-01-12T02:11:36.150Z,91.52
2018-01-12T02:12:36.142Z,91.66
2018-01-12T02:13:36.169Z,91.56
2018-01-12T02:14:36.172Z,91.19
2018-01-12T02:15:36.133Z,91.38
2018-01-12T02:16:36.170Z,91.80
2018-01-12T02:17:36.153Z,92.28
2018-01-12T02:18:36.210Z,91.99
2018-01-12T02:19:36.141Z,91.89
2018-01-12T02:20:36.149Z,91.71
2018-01-12T02:21:36.132Z,91.99
2018-01-12T02:22:36.142Z,91.99
2018-01-12T02:23:36.142Z,91.71
2018-01-12T02:24:36.154Z,91.80
2018-01-12T02:25:36.141Z,91.61
2018-01-12T02:26:36.140Z,91.89
2018-01-12T02:27:36.144Z,91.89
2018-01-12T02:28:36.156Z,91.42
2018-01-12T02:29:36.160Z,91.52
2018-01-12T02:30:36.162Z,91.71
2018-01-12T02:31:36.148Z,92.28
2018-01-12T02:32:36.143Z,92.28
2018-01-12T02:33:36.158Z,91.61
2018-01-12T02:34:36.138Z,91.80
2018-01-12T02:35:36.146Z,91.71
2018-01-12T02:36:36.969Z,92.09
2018-01-12T02:37:36.140Z,92.37
2018-01-12T02:38:36.158Z,91.80
2018-01-12T02:39:36.147Z,91.89
2018-01-12T02:40:36.139Z,91.52
2018-01-12T02:41:36.971Z,91.80
2018-01-12T02:42:36.165Z,92.09
2018-01-12T02:43:36.144Z,92.28
2018-01-12T02:44:36.145Z,91.71
2018-01-12T02:45:36.143Z,91.42
2018-01-12T02:46:36.138Z,91.42
2018-01-12T02:47:36.152Z,91.33
2018-01-12T02:48:36.143Z,91.33
2018-01-12T02:49:36.157Z,91.14
2018-01-12T02:50:36.170Z,91.24
2018-01-12T02:51:36.138Z,91.04
2018-01-12T02:52:36.150Z,91.61
2018-01-12T02:53:36.149Z,91.42
2018-01-12T02:54:36.146Z,91.24
2018-01-12T02:55:36.149Z,91.04
2018-01-12T02:56:36.151Z,91.04
2018-01-12T02:57:36.140Z,91.24
2018-01-12T02:58:36.970Z,91.24
2018-01-12T02:59:36.144Z,91.80
2018-01-12T03:00:36.144Z,91.42
2018-01-12T03:01:36.144Z,92.18
2018-01-12T03:02:36.160Z,92.33
2018-01-12T03:03:36.145Z,91.99
2018-01-12T03:04:36.150Z,91.99
2018-01-12T03:05:36.153Z,92.09
2018-01-12T03:06:36.177Z,92.09
2018-01-12T03:07:36.175Z,91.99
2018-01-12T03:08:36.145Z,92.37
2018-01-12T03:09:36.160Z,93.13
2018-01-12T03:10:36.138Z,92.75
2018-01-12T03:11:36.147Z,91.89
2018-01-12T03:12:36.161Z,92.37
2018-01-12T03:13:36.140Z,92.09
2018-01-12T03:14:36.158Z,92.09
2018-01-12T03:15:36.150Z,91.89
2018-01-12T03:16:36.152Z,91.66
2018-01-12T03:17:36.147Z,91.89
2018-01-12T03:18:36.194Z,91.89
2018-01-12T03:19:36.153Z,91.80
2018-01-12T03:20:36.211Z,92.09
2018-01-12T03:21:36.151Z,92.18
2018-01-12T03:22:36.162Z,91.75
2018-01-12T03:23:36.162Z,92.37
2018-01-12T03:24:36.145Z,92.37
2018-01-12T03:25:36.150Z,92.33
2018-01-12T03:26:36.158Z,92.66
2018-01-12T03:27:36.164Z,92.66
2018-01-12T03:28:36.178Z,92.56
2018-01-12T03:29:36.155Z,92.33
2018-01-12T03:30:36.162Z,92.47
2018-01-12T03:31:36.149Z,92.28
2018-01-12T03:32:36.157Z,92.85
2018-01-12T03:33:36.246Z,92.47
2018-01-12T03:34:36.152Z,92.33
2018-01-12T03:35:36.158Z,92.66
2018-01-12T03:36:36.164Z,92.66
2018-01-12T03:37:36.172Z,92.47
2018-01-12T03:38:36.169Z,92.56
2018-01-12T03:39:36.148Z,92.85
2018-01-12T03:40:36.150Z,91.99
2018-01-12T03:41:36.152Z,91.89
2018-01-12T03:42:36.160Z,91.99
2018-01-12T03:43:36.981Z,91.71
2018-01-12T03:44:36.163Z,92.37
2018-01-12T03:45:36.151Z,92.37
2018-01-12T03:46:36.159Z,92.18
2018-01-12T03:47:36.167Z,92.09
2018-01-12T03:48:36.151Z,91.89
2018-01-12T03:49:36.156Z,91.80
2018-01-12T03:50:36.172Z,92.94
2018-01-12T03:51:36.154Z,92.37
2018-01-12T03:52:36.165Z,92.75
2018-01-12T03:53:36.175Z,92.37
2018-01-12T03:54:36.162Z,92.37
2018-01-12T03:55:36.157Z,92.94
2018-01-12T03:56:36.155Z,92.66
2018-01-12T03:57:36.179Z,92.47
2018-01-12T03:58:36.165Z,92.47
2018-01-12T03:59:36.164Z,92.66
2018-01-12T04:00:36.160Z,91.99
2018-01-12T04:01:36.173Z,92.85
2018-01-12T04:02:36.162Z,91.99
2018-01-12T04:03:36.168Z,91.99
2018-01-12T04:04:36.205Z,91.71
2018-01-12T04:05:36.169Z,92.94
2018-01-12T04:06:36.169Z,91.89
2018-01-12T04:07:36.163Z,92.18
2018-01-12T04:08:36.160Z,91.80
2018-01-12T04:09:36.162Z,92.37
2018-01-12T04:10:36.184Z,92.56
2018-01-12T04:11:36.156Z,92.37
2018-01-12T04:12:36.156Z,92.56
2018-01-12T04:13:36.155Z,92.37
2018-01-12T04:14:36.165Z,92.66
2018-01-12T04:15:36.174Z,92.37
2018-01-12T04:16:36.168Z,92.75
2018-01-12T04:17:36.179Z,92.47
2018-01-12T04:18:36.162Z,92.75
2018-01-12T04:19:36.160Z,92.75
2018-01-12T04:20:36.159Z,92.75
2018-01-12T04:21:36.158Z,92.75
2018-01-12T04:22:36.162Z,92.56
2018-01-12T04:23:36.162Z,92.85
2018-01-12T04:24:36.213Z,93.32
2018-01-12T04:25:36.170Z,93.13
2018-01-12T04:26:36.184Z,92.75
2018-01-12T04:27:36.171Z,92.75
2018-01-12T04:28:36.169Z,93.04
2018-01-12T04:29:36.163Z,92.66
2018-01-12T04:30:36.172Z,92.47
2018-01-12T04:31:36.167Z,92.47
2018-01-12T04:32:36.180Z,92.47
2018-01-12T04:33:36.193Z,93.04
2018-01-12T04:34:36.173Z,92.66
2018-01-12T04:35:36.187Z,92.75
2018-01-12T04:36:36.187Z,92.66
2018-01-12T04:37:36.186Z,93.23
2018-01-12T04:38:36.175Z,93.04
2018-01-12T04:39:36.181Z,93.04
2018-01-12T04:40:36.226Z,92.47
2018-01-12T04:41:36.172Z,92.75
2018-01-12T04:42:36.213Z,92.56
2018-01-12T04:43:36.172Z,92.37
2018-01-12T04:44:36.192Z,92.75
2018-01-12T04:45:36.171Z,92.66
2018-01-12T04:46:36.171Z,92.66
2018-01-12T04:47:36.170Z,92.28
2018-01-12T04:48:36.231Z,92.66
2018-01-12T04:49:36.171Z,92.56
2018-01-12T04:50:36.201Z,91.71
2018-01-12T04:51:36.199Z,92.47
2018-01-12T04:52:36.166Z,92.56
2018-01-12T04:53:36.178Z,91.80
2018-01-12T04:54:36.202Z,91.80
2018-01-12T04:55:36.176Z,91.89
2018-01-12T04:56:36.180Z,92.47
2018-01-12T04:57:36.202Z,92.94
2018-01-12T04:58:36.222Z,91.99
2018-01-12T04:59:36.190Z,93.13
2018-01-12T05:00:36.181Z,92.18
2018-01-12T05:01:36.191Z,92.47
2018-01-12T05:02:36.184Z,91.99
2018-01-12T05:03:36.173Z,92.37
2018-01-12T05:04:36.189Z,91.89
2018-01-12T05:05:36.212Z,91.80
2018-01-12T05:06:36.176Z,92.09
2018-01-12T05:07:36.177Z,92.18
2018-01-12T05:08:36.182Z,92.66
2018-01-12T05:09:36.190Z,92.75
2018-01-12T05:10:36.181Z,92.66
2018-01-12T05:11:36.193Z,92.47
2018-01-12T05:12:36.180Z,92.85
2018-01-12T05:13:36.180Z,91.71
2018-01-12T05:14:36.183Z,91.99
2018-01-12T05:15:36.176Z,92.47
2018-01-12T05:16:36.202Z,91.99
2018-01-12T05:17:36.196Z,91.61
2018-01-12T05:18:36.190Z,92.47
2018-01-12T05:19:36.218Z,91.71
2018-01-12T05:20:36.197Z,92.09
2018-01-12T05:21:36.179Z,92.47
2018-01-12T05:22:36.183Z,91.61
2018-01-12T05:23:36.177Z,91.89
2018-01-12T05:24:36.185Z,92.09
2018-01-12T05:25:36.180Z,92.09
2018-01-12T05:26:36.180Z,92.18
2018-01-12T05:27:36.181Z,91.99
2018-01-12T05:28:36.184Z,92.18
2018-01-12T05:29:36.176Z,91.99
2018-01-12T05:30:36.190Z,92.28
2018-01-12T05:31:36.184Z,92.09
2018-01-12T05:32:36.185Z,92.09
2018-01-12T05:33:36.225Z,91.89
2018-01-12T05:34:36.179Z,92.66
2018-01-12T05:35:36.183Z,92.66
2018-01-12T05:36:36.209Z,92.09
2018-01-12T05:37:36.202Z,92.75
2018-01-12T05:38:36.184Z,91.99
2018-01-12T05:39:37.006Z,92.18
2018-01-12T05:40:36.211Z,91.89
2018-01-12T05:41:36.191Z,91.52
2018-01-12T05:42:36.220Z,92.09
2018-01-12T05:43:36.188Z,92.09
2018-01-12T05:44:36.185Z,91.89
2018-01-12T05:45:36.224Z,93.13
2018-01-12T05:46:36.216Z,92.94
2018-01-12T05:47:36.190Z,91.99
2018-01-12T05:48:36.214Z,92.75
2018-01-12T05:49:36.192Z,92.47
2018-01-12T05:50:36.243Z,92.94
2018-01-12T05:51:36.239Z,92.56
2018-01-12T05:52:36.189Z,92.47
2018-01-12T05:53:36.186Z,92.56
2018-01-12T05:54:36.188Z,92.37
2018-01-12T05:55:36.193Z,92.47
2018-01-12T05:56:36.192Z,92.56
2018-01-12T05:57:36.202Z,92.66
2018-01-12T05:58:36.236Z,92.75
2018-01-12T05:59:36.188Z,92.75
2018-01-12T06:00:36.189Z,92.56
2018-01-12T06:01:36.235Z,92.37
2018-01-12T06:02:36.210Z,92.37
2018-01-12T06:03:36.184Z,92.66
2018-01-12T06:04:36.191Z,93.23
2018-01-12T06:05:37.016Z,92.56
2018-01-12T06:06:36.198Z,92.37
2018-01-12T06:07:36.198Z,92.18
2018-01-12T06:08:36.218Z,92.75
2018-01-12T06:09:36.201Z,92.47
2018-01-12T06:10:36.204Z,92.47
2018-01-12T06:11:36.209Z,92.75
2018-01-12T06:12:36.200Z,92.47
2018-01-12T06:13:36.185Z,92.18
2018-01-12T06:14:36.210Z,92.37
2018-01-12T06:15:36.229Z,92.75
2018-01-12T06:16:36.195Z,92.66
2018-01-12T06:17:36.198Z,92.47
2018-01-12T06:18:36.284Z,93.04
2018-01-12T06:19:36.198Z,93.13
2018-01-12T06:20:36.196Z,92.94
2018-01-12T06:21:36.194Z,93.32
2018-01-12T06:22:36.196Z,92.85
2018-01-12T06:23:36.216Z,93.13
2018-01-12T06:24:36.206Z,93.23
2018-01-12T06:25:36.205Z,93.32
2018-01-12T06:26:36.213Z,92.94
2018-01-12T06:27:36.197Z,92.66
2018-01-12T06:28:36.193Z,92.37
2018-01-12T06:29:36.194Z,92.47
2018-01-12T06:30:36.197Z,92.47
2018-01-12T06:31:36.279Z,92.47
2018-01-12T06:32:36.204Z,91.99
2018-01-12T06:33:36.194Z,92.56
2018-01-12T06:34:36.201Z,92.47
2018-01-12T06:35:36.200Z,92.56
2018-01-12T06:36:36.206Z,92.56
2018-01-12T06:37:36.201Z,92.66
2018-01-12T06:38:36.258Z,92.66
2018-01-12T06:39:36.223Z,92.66
2018-01-12T06:40:36.204Z,92.75
2018-01-12T06:41:36.210Z,92.47
2018-01-12T06:42:36.241Z,92.75
2018-01-12T06:43:36.205Z,92.66
2018-01-12T06:44:36.304Z,92.75
2018-01-12T06:45:36.237Z,92.47
2018-01-12T06:46:36.204Z,92.85
2018-01-12T06:47:36.207Z,92.85
2018-01-12T06:48:36.206Z,92.85
2018-01-12T06:49:36.209Z,92.66
2018-01-12T06:50:36.202Z,92.66
2018-01-12T06:51:36.206Z,92.66
2018-01-12T06:52:36.229Z,93.04
2018-01-12T06:53:36.205Z,93.04
2018-01-12T06:54:36.207Z,92.47
2018-01-12T06:55:36.207Z,92.66
2018-01-12T06:56:36.229Z,92.75
2018-01-12T06:57:36.201Z,92.85
2018-01-12T06:58:36.210Z,92.66
2018-01-12T06:59:36.235Z,92.37
2018-01-12T07:00:36.213Z,92.75
2018-01-12T07:01:36.211Z,91.99
2018-01-12T07:02:36.318Z,92.56
2018-01-12T07:03:36.205Z,92.66
2018-01-12T07:04:36.244Z,92.56
2018-01-12T07:05:36.210Z,92.56
2018-01-12T07:06:36.255Z,92.66
2018-01-12T07:07:36.251Z,92.66
2018-01-12T07:08:36.209Z,92.94
2018-01-12T07:09:36.211Z,93.23
2018-01-12T07:10:36.233Z,93.13
2018-01-12T07:11:36.251Z,92.75
2018-01-12T07:12:36.219Z,92.56
2018-01-12T07:13:36.213Z,92.66
2018-01-12T07:14:36.209Z,92.56
2018-01-12T07:15:36.305Z,92.66
2018-01-12T07:16:36.222Z,92.75
2018-01-12T07:17:36.217Z,92.75
2018-01-12T07:18:36.249Z,92.47
2018-01-12T07:19:36.247Z,93.04
2018-01-12T07:20:36.221Z,93.23
2018-01-12T07:21:36.284Z,93.23
2018-01-12T07:22:36.210Z,93.23
2018-01-12T07:23:36.228Z,92.66
2018-01-12T07:24:36.216Z,92.56
2018-01-12T07:25:36.213Z,93.13
2018-01-12T07:26:36.218Z,92.75
2018-01-12T07:27:36.245Z,92.85
2018-01-12T07:28:37.031Z,92.75
2018-01-12T07:29:36.236Z,93.13
2018-01-12T07:30:36.231Z,92.85
2018-01-12T07:31:36.238Z,93.13
2018-01-12T07:32:36.218Z,93.13
2018-01-12T07:33:36.224Z,93.41
2018-01-12T07:34:36.210Z,93.04
2018-01-12T07:35:36.223Z,92.85
2018-01-12T07:36:36.227Z,93.32
2018-01-12T07:37:36.233Z,92.94
2018-01-12T07:38:36.235Z,92.94
2018-01-12T07:39:36.226Z,93.13
2018-01-12T07:40:36.220Z,93.89
2018-01-12T07:41:36.256Z,93.70
2018-01-12T07:42:36.214Z,93.51
2018-01-12T07:43:36.228Z,93.51
2018-01-12T07:44:36.225Z,93.32
2018-01-12T07:45:36.240Z,93.32
2018-01-12T07:46:37.035Z,93.51
2018-01-12T07:47:36.219Z,93.32
2018-01-12T07:48:36.270Z,93.32
2018-01-12T07:49:36.226Z,93.60
2018-01-12T07:50:36.226Z,93.04
2018-01-12T07:51:36.237Z,93.51
2018-01-12T07:52:36.229Z,92.85
2018-01-12T07:53:36.229Z,92.94
2018-01-12T07:54:36.238Z,93.23
2018-01-12T07:55:36.236Z,93.23
2018-01-12T07:56:37.048Z,93.04
2018-01-12T07:57:36.269Z,92.94
2018-01-12T07:58:36.237Z,92.85
2018-01-12T07:59:36.235Z,92.56
2018-01-12T08:00:36.229Z,92.66
2018-01-12T08:01:40.490Z,93.13
2018-01-12T08:02:36.237Z,92.94
2018-01-12T08:03:36.252Z,93.23
2018-01-12T08:04:36.249Z,92.66
2018-01-12T08:05:36.237Z,93.13
2018-01-12T08:06:36.239Z,92.94
2018-01-12T08:07:36.226Z,93.04
2018-01-12T08:08:36.245Z,92.66
2018-01-12T08:09:36.309Z,92.66
2018-01-12T08:10:36.263Z,93.04
2018-01-12T08:11:36.231Z,92.56
2018-01-12T08:12:36.250Z,93.13
2018-01-12T08:19:48.229Z,92.66
2018-01-12T08:20:48.068Z,92.56
2018-01-12T08:21:48.081Z,92.47
2018-01-12T08:22:48.428Z,92.66
2018-01-12T08:23:48.314Z,92.28
2018-01-12T08:24:48.040Z,92.66
2018-01-12T08:25:48.524Z,92.37
2018-01-12T08:26:48.108Z,92.75
2018-01-12T08:27:48.144Z,92.66
2018-01-12T08:28:48.163Z,92.85
2018-01-12T08:29:48.068Z,93.60
2018-01-12T08:30:48.037Z,92.94
2018-01-12T08:31:48.026Z,92.94
2018-01-12T08:32:48.023Z,92.85
2018-01-12T08:33:48.037Z,93.23
2018-01-12T08:34:48.048Z,92.85
2018-01-12T08:35:48.025Z,92.75
2018-01-12T08:36:48.047Z,92.66
2018-01-12T08:37:48.042Z,93.04
2018-01-12T08:38:48.530Z,93.32
2018-01-12T08:39:48.081Z,93.13
2018-01-12T08:40:48.044Z,92.66
2018-01-12T08:41:48.035Z,93.23
2018-01-12T08:42:48.120Z,92.56
2018-01-12T08:43:48.084Z,92.94
2018-01-12T08:44:48.095Z,93.13
2018-01-12T08:45:48.035Z,92.85
2018-01-12T08:46:48.530Z,92.85
2018-01-12T08:47:48.039Z,92.56
2018-01-12T08:48:48.045Z,92.75
2018-01-12T08:49:48.048Z,92.85
2018-01-12T08:50:48.043Z,92.85
2018-01-12T08:51:48.037Z,93.13
2018-01-12T08:52:48.050Z,93.23
2018-01-12T08:53:48.088Z,92.94
2018-01-12T08:54:48.047Z,93.23
2018-01-12T08:55:48.037Z,93.23
2018-01-12T08:56:48.035Z,93.23
2018-01-12T08:57:48.068Z,92.66
2018-01-12T08:58:48.043Z,92.85
2018-01-12T08:59:48.036Z,92.75
2018-01-12T09:00:48.045Z,92.75
2018-01-12T09:01:48.067Z,93.70
2018-01-12T09:02:48.041Z,93.41
2018-01-12T09:03:48.069Z,93.70
2018-01-12T09:04:48.095Z,93.04
2018-01-12T09:05:48.040Z,92.94
2018-01-12T09:06:48.046Z,92.56
2018-01-12T09:07:48.040Z,93.60
2018-01-12T09:08:48.065Z,92.94
2018-01-12T09:09:48.504Z,93.23
2018-01-12T09:10:48.171Z,93.04
2018-01-12T09:11:48.038Z,93.04
2018-01-12T09:12:48.042Z,93.04
2018-01-12T09:13:48.066Z,93.32
2018-01-12T09:14:48.081Z,92.56
2018-01-12T09:15:48.037Z,93.04
2018-01-12T09:16:48.049Z,92.85
2018-01-12T09:17:48.060Z,93.13
2018-01-12T09:18:48.041Z,93.13
2018-01-12T09:19:48.585Z,92.56
2018-01-12T09:20:48.122Z,93.32
2018-01-12T09:21:48.046Z,93.04
2018-01-12T09:22:48.111Z,93.13
2018-01-12T09:23:48.060Z,93.13
2018-01-12T09:24:48.078Z,92.90
2018-01-12T09:25:48.098Z,92.47
2018-01-12T09:26:48.089Z,92.37
2018-01-12T09:27:48.105Z,92.51
2018-01-12T09:28:48.073Z,92.04
2018-01-12T09:29:48.089Z,92.42
2018-01-12T09:30:48.136Z,92.51
2018-01-12T09:31:48.060Z,92.51
2018-01-12T09:32:48.044Z,92.71
2018-01-12T09:33:48.154Z,92.71
2018-01-12T09:34:48.090Z,92.51
2018-01-12T09:35:48.069Z,92.80
2018-01-12T09:36:48.147Z,92.80
2018-01-12T09:37:48.134Z,92.61
2018-01-12T09:38:48.084Z,92.42
2018-01-12T09:39:48.060Z,92.61
2018-01-12T09:40:48.063Z,92.51
2018-01-12T09:41:48.228Z,92.71
2018-01-12T09:42:48.083Z,92.90
2018-01-12T09:43:48.124Z,92.80
2018-01-12T09:44:48.107Z,93.27
2018-01-12T09:45:48.137Z,92.51
2018-01-12T09:46:48.121Z,92.71
2018-01-12T09:47:48.141Z,92.51
2018-01-12T09:48:48.089Z,92.71
2018-01-12T09:49:48.059Z,92.61
2018-01-12T09:50:48.146Z,92.99
2018-01-12T09:51:48.124Z,92.61
2018-01-12T09:52:48.073Z,91.75
2018-01-12T09:53:48.060Z,91.94
2018-01-12T09:54:48.185Z,92.80
2018-01-12T09:55:48.148Z,93.37
2018-01-12T09:56:48.232Z,92.71
2018-01-12T09:57:48.108Z,92.13
2018-01-12T09:58:48.141Z,91.94
2018-01-12T09:59:48.082Z,90.90
2018-01-12T10:00:48.106Z,91.28
2018-01-12T10:01:48.091Z,91.38
2018-01-12T10:02:48.062Z,91.66
2018-01-12T10:03:48.192Z,91.56
2018-01-12T10:04:48.115Z,91.94
2018-01-12T10:05:48.125Z,91.38
2018-01-12T10:06:48.066Z,91.47
2018-01-12T10:07:48.073Z,91.19
2018-01-12T10:08:48.063Z,90.42
2018-01-12T10:09:48.082Z,90.90
2018-01-12T10:10:48.088Z,91.28
2018-01-12T10:11:48.065Z,91.38
2018-01-12T10:12:48.120Z,91.85
2018-01-12T10:13:48.587Z,92.61
